Time;durP1;ratioP1;P1;durP2;ratioP2;P2;SDS_P1;SDS_P2;PMS_P1;PMS_P2;Temp;Humidity;BMP_temperature;BMP_pressure;BME280_temperature;BME280_humidity;BME280_pressure;Samples;Min_cycle;Max_cycle;Signal;HPM_P1;HPM_P2
2020/03/31 00:00:10;;;;;;;13.7;7.150001;;;;;;;-3.33;55.7793;95791.64;;;;
2020/03/31 00:02:58;;;;;;;13.7;7.150001;;;;;;;-3.33;55.7793;95791.64;;;;
2020/03/31 00:12:02;;;;;;;12.85;6.7;;;;;;;-3.4;56.21875;95786.97;;;;
2020/03/31 00:21:20;;;;;;;11.35;6.849999;;;;;;;-3.53;56.58496;95781.2;;;;
2020/03/31 00:30:18;;;;;;;12.25;6.700001;;;;;;;-3.61;56.51172;95775.3;;;;
2020/03/31 00:39:41;;;;;;;10.75;6.249999;;;;;;;-3.77;56.37598;95771.95;;;;
2020/03/31 00:44:37;;;;;;;10.75;6.249999;;;;;;;-3.77;56.37598;95771.95;;;;
2020/03/31 00:54:01;;;;;;;15.6;7.05;;;;;;;-3.84;56.8252;95773;;;;
2020/03/31 00:56:32;;;;;;;13.05;6.750001;;;;;;;-3.93;56.87598;95776.87;;;;
2020/03/31 01:05:53;;;;;;;13.05;6.750001;;;;;;;-3.93;56.87598;95776.87;;;;
2020/03/31 01:11:46;;;;;;;10.6;6.3;;;;;;;-3.95;56.91211;95778.86;;;;
2020/03/31 01:18:04;;;;;;;11.1;6.45;;;;;;;-4.06;57.14746;95756.98;;;;
2020/03/31 01:28:52;;;;;;;12.55;6.65;;;;;;;-4.11;57.02734;95755.66;;;;
2020/03/31 01:30:00;;;;;;;12.55;6.65;;;;;;;-4.11;57.02734;95755.66;;;;
2020/03/31 01:31:27;;;;;;;12.55;6.65;;;;;;;-4.11;57.02734;95755.66;;;;
2020/03/31 01:33:42;;;;;;;12.55;6.65;;;;;;;-4.11;57.02734;95755.66;;;;
2020/03/31 01:34:46;;;;;;;12.55;6.65;;;;;;;-4.11;57.02734;95755.66;;;;
2020/03/31 01:35:57;;;;;;;12.55;6.65;;;;;;;-4.11;57.02734;95755.66;;;;
2020/03/31 01:37:06;;;;;;;12.55;6.65;;;;;;;-4.11;57.02734;95755.66;;;;
2020/03/31 01:38:15;;;;;;;12.55;6.65;;;;;;;-4.11;57.02734;95755.66;;;;
2020/03/31 01:39:23;;;;;;;12.2;6.449999;;;;;;;-4.24;57.18555;95740.16;;;;
2020/03/31 01:44:59;;;;;;;12.2;6.449999;;;;;;;-4.24;57.18555;95740.16;;;;
2020/03/31 01:46:37;;;;;;;12.2;6.449999;;;;;;;-4.24;57.18555;95740.16;;;;
2020/03/31 01:47:38;;;;;;;12.2;6.449999;;;;;;;-4.24;57.18555;95740.16;;;;
2020/03/31 01:48:39;;;;;;;12.2;6.449999;;;;;;;-4.24;57.18555;95740.16;;;;
2020/03/31 01:49:40;;;;;;;10.85;6.25;;;;;;;-4.29;57.48047;95748.95;;;;
2020/03/31 01:50:40;;;;;;;10.85;6.25;;;;;;;-4.29;57.48047;95748.95;;;;
2020/03/31 01:51:41;;;;;;;10.85;6.25;;;;;;;-4.29;57.48047;95748.95;;;;
2020/03/31 01:52:41;;;;;;;10.85;6.25;;;;;;;-4.29;57.48047;95748.95;;;;
2020/03/31 01:53:42;;;;;;;10.85;6.25;;;;;;;-4.29;57.48047;95748.95;;;;
2020/03/31 01:54:48;;;;;;;10.85;6.25;;;;;;;-4.29;57.48047;95748.95;;;;
2020/03/31 01:55:48;;;;;;;10.85;6.25;;;;;;;-4.29;57.48047;95748.95;;;;
2020/03/31 01:56:52;;;;;;;10.85;6.25;;;;;;;-4.29;57.48047;95748.95;;;;
2020/03/31 01:57:53;;;;;;;10.85;6.25;;;;;;;-4.29;57.48047;95748.95;;;;
2020/03/31 01:58:53;;;;;;;10.85;6.25;;;;;;;-4.29;57.48047;95748.95;;;;
2020/03/31 01:59:54;;;;;;;10.85;6.2;;;;;;;-4.44;57.62598;95750.23;;;;
2020/03/31 02:00:54;;;;;;;10.85;6.2;;;;;;;-4.44;57.62598;95750.23;;;;
2020/03/31 02:02:13;;;;;;;10.85;6.2;;;;;;;-4.44;57.62598;95750.23;;;;
2020/03/31 02:03:52;;;;;;;10.85;6.2;;;;;;;-4.44;57.62598;95750.23;;;;
2020/03/31 02:04:59;;;;;;;10.85;6.2;;;;;;;-4.44;57.62598;95750.23;;;;
2020/03/31 02:05:59;;;;;;;10.85;6.2;;;;;;;-4.44;57.62598;95750.23;;;;
2020/03/31 02:07:48;;;;;;;10.85;6.2;;;;;;;-4.44;57.62598;95750.23;;;;
2020/03/31 02:08:48;;;;;;;10.85;6.2;;;;;;;-4.44;57.62598;95750.23;;;;
2020/03/31 02:09:54;;;;;;;10.85;6.2;;;;;;;-4.44;57.62598;95750.23;;;;
2020/03/31 02:13:22;;;;;;;10.3;6.05;;;;;;;-4.47;57.88184;95760.63;;;;
2020/03/31 02:19:26;;;;;;;10.3;6.05;;;;;;;-4.47;57.88184;95760.63;;;;
2020/03/31 02:20:33;;;;;;;10.3;6.05;;;;;;;-4.47;57.88184;95760.63;;;;
2020/03/31 02:21:36;;;;;;;11.55;6.200001;;;;;;;-4.6;57.82227;95773.66;;;;
2020/03/31 02:22:44;;;;;;;11.55;6.200001;;;;;;;-4.6;57.82227;95773.66;;;;
2020/03/31 02:23:56;;;;;;;11.55;6.200001;;;;;;;-4.6;57.82227;95773.66;;;;
2020/03/31 02:25:00;;;;;;;11.55;6.200001;;;;;;;-4.6;57.82227;95773.66;;;;
2020/03/31 02:26:13;;;;;;;11.55;6.200001;;;;;;;-4.6;57.82227;95773.66;;;;
2020/03/31 02:27:21;;;;;;;11.55;6.200001;;;;;;;-4.6;57.82227;95773.66;;;;
2020/03/31 02:28:24;;;;;;;11.55;6.200001;;;;;;;-4.6;57.82227;95773.66;;;;
2020/03/31 02:29:28;;;;;;;11.55;6.200001;;;;;;;-4.6;57.82227;95773.66;;;;
2020/03/31 02:30:28;;;;;;;11.55;6.200001;;;;;;;-4.6;57.82227;95773.66;;;;
2020/03/31 02:31:37;;;;;;;11.65;6.1;;;;;;;-4.67;58.16504;95780.38;;;;
2020/03/31 02:32:37;;;;;;;11.65;6.1;;;;;;;-4.67;58.16504;95780.38;;;;
2020/03/31 02:33:38;;;;;;;11.65;6.1;;;;;;;-4.67;58.16504;95780.38;;;;
2020/03/31 02:34:38;;;;;;;11.65;6.1;;;;;;;-4.67;58.16504;95780.38;;;;
2020/03/31 02:35:39;;;;;;;11.65;6.1;;;;;;;-4.67;58.16504;95780.38;;;;
2020/03/31 02:36:48;;;;;;;11.65;6.1;;;;;;;-4.67;58.16504;95780.38;;;;
2020/03/31 02:37:54;;;;;;;11.65;6.1;;;;;;;-4.67;58.16504;95780.38;;;;
2020/03/31 02:38:54;;;;;;;11.65;6.1;;;;;;;-4.67;58.16504;95780.38;;;;
2020/03/31 02:39:57;;;;;;;11.65;6.1;;;;;;;-4.67;58.16504;95780.38;;;;
2020/03/31 02:41:44;;;;;;;11.65;6.1;;;;;;;-4.67;58.16504;95780.38;;;;
2020/03/31 02:42:55;;;;;;;9.599999;5.15;;;;;;;-4.78;58.14941;95773.46;;;;
2020/03/31 02:43:55;;;;;;;9.599999;5.15;;;;;;;-4.78;58.14941;95773.46;;;;
2020/03/31 02:44:56;;;;;;;9.599999;5.15;;;;;;;-4.78;58.14941;95773.46;;;;
2020/03/31 02:45:56;;;;;;;9.599999;5.15;;;;;;;-4.78;58.14941;95773.46;;;;
2020/03/31 02:46:58;;;;;;;9.599999;5.15;;;;;;;-4.78;58.14941;95773.46;;;;
2020/03/31 02:47:59;;;;;;;9.599999;5.15;;;;;;;-4.78;58.14941;95773.46;;;;
2020/03/31 02:49:00;;;;;;;9.599999;5.15;;;;;;;-4.78;58.14941;95773.46;;;;
2020/03/31 02:50:16;;;;;;;9.599999;5.15;;;;;;;-4.78;58.14941;95773.46;;;;
2020/03/31 02:51:20;;;;;;;9.599999;5.15;;;;;;;-4.78;58.14941;95773.46;;;;
2020/03/31 02:52:33;;;;;;;9.599999;5.15;;;;;;;-4.78;58.14941;95773.46;;;;
2020/03/31 02:53:37;;;;;;;10.35;5.950001;;;;;;;-4.73;58.46777;95772.99;;;;
2020/03/31 02:54:37;;;;;;;10.35;5.950001;;;;;;;-4.73;58.46777;95772.99;;;;
2020/03/31 02:55:44;;;;;;;10.35;5.950001;;;;;;;-4.73;58.46777;95772.99;;;;
2020/03/31 02:56:45;;;;;;;10.35;5.950001;;;;;;;-4.73;58.46777;95772.99;;;;
2020/03/31 02:57:46;;;;;;;10.35;5.950001;;;;;;;-4.73;58.46777;95772.99;;;;
2020/03/31 02:58:48;;;;;;;10.35;5.950001;;;;;;;-4.73;58.46777;95772.99;;;;
2020/03/31 02:59:49;;;;;;;10.35;5.950001;;;;;;;-4.73;58.46777;95772.99;;;;
2020/03/31 03:00:50;;;;;;;10.35;5.950001;;;;;;;-4.73;58.46777;95772.99;;;;
2020/03/31 03:03:14;;;;;;;10.35;5.950001;;;;;;;-4.73;58.46777;95772.99;;;;
2020/03/31 03:04:21;;;;;;;8.099999;5.1;;;;;;;-4.76;58.31836;95766.26;;;;
2020/03/31 03:05:29;;;;;;;8.099999;5.1;;;;;;;-4.76;58.31836;95766.26;;;;
2020/03/31 03:06:51;;;;;;;8.099999;5.1;;;;;;;-4.76;58.31836;95766.26;;;;
2020/03/31 03:07:51;;;;;;;8.099999;5.1;;;;;;;-4.76;58.31836;95766.26;;;;
2020/03/31 03:08:52;;;;;;;8.099999;5.1;;;;;;;-4.76;58.31836;95766.26;;;;
2020/03/31 03:09:54;;;;;;;8.099999;5.1;;;;;;;-4.76;58.31836;95766.26;;;;
2020/03/31 03:11:45;;;;;;;8.099999;5.1;;;;;;;-4.76;58.31836;95766.26;;;;
2020/03/31 03:12:52;;;;;;;8.099999;5.1;;;;;;;-4.76;58.31836;95766.26;;;;
2020/03/31 03:13:52;;;;;;;8.099999;5.1;;;;;;;-4.76;58.31836;95766.26;;;;
2020/03/31 03:14:54;;;;;;;10.1;5.950001;;;;;;;-4.77;58.37891;95777.76;;;;
2020/03/31 03:15:55;;;;;;;10.1;5.950001;;;;;;;-4.77;58.37891;95777.76;;;;
2020/03/31 03:16:55;;;;;;;10.1;5.950001;;;;;;;-4.77;58.37891;95777.76;;;;
2020/03/31 03:17:55;;;;;;;10.1;5.950001;;;;;;;-4.77;58.37891;95777.76;;;;
2020/03/31 03:18:56;;;;;;;10.1;5.950001;;;;;;;-4.77;58.37891;95777.76;;;;
2020/03/31 03:19:57;;;;;;;10.1;5.950001;;;;;;;-4.77;58.37891;95777.76;;;;
2020/03/31 03:20:57;;;;;;;10.1;5.950001;;;;;;;-4.77;58.37891;95777.76;;;;
2020/03/31 03:21:58;;;;;;;10.1;5.950001;;;;;;;-4.77;58.37891;95777.76;;;;
2020/03/31 03:22:59;;;;;;;10.1;5.950001;;;;;;;-4.77;58.37891;95777.76;;;;
2020/03/31 03:23:59;;;;;;;10.1;5.950001;;;;;;;-4.77;58.37891;95777.76;;;;
2020/03/31 03:25:11;;;;;;;11.05;6.25;;;;;;;-4.87;58.38574;95768.08;;;;
2020/03/31 03:26:11;;;;;;;11.05;6.25;;;;;;;-4.87;58.38574;95768.08;;;;
2020/03/31 03:27:12;;;;;;;11.05;6.25;;;;;;;-4.87;58.38574;95768.08;;;;
2020/03/31 03:28:13;;;;;;;11.05;6.25;;;;;;;-4.87;58.38574;95768.08;;;;
2020/03/31 03:29:13;;;;;;;11.05;6.25;;;;;;;-4.87;58.38574;95768.08;;;;
2020/03/31 03:30:14;;;;;;;11.05;6.25;;;;;;;-4.87;58.38574;95768.08;;;;
2020/03/31 03:31:22;;;;;;;11.05;6.25;;;;;;;-4.87;58.38574;95768.08;;;;
2020/03/31 03:32:24;;;;;;;11.05;6.25;;;;;;;-4.87;58.38574;95768.08;;;;
2020/03/31 03:33:24;;;;;;;11.05;6.25;;;;;;;-4.87;58.38574;95768.08;;;;
2020/03/31 03:34:27;;;;;;;11.05;6.25;;;;;;;-4.87;58.38574;95768.08;;;;
2020/03/31 03:35:27;;;;;;;10.05;6.2;;;;;;;-4.81;58.91309;95766.25;;;;
2020/03/31 03:36:28;;;;;;;10.05;6.2;;;;;;;-4.81;58.91309;95766.25;;;;
2020/03/31 03:37:28;;;;;;;10.05;6.2;;;;;;;-4.81;58.91309;95766.25;;;;
2020/03/31 03:38:29;;;;;;;10.05;6.2;;;;;;;-4.81;58.91309;95766.25;;;;
2020/03/31 03:39:30;;;;;;;10.05;6.2;;;;;;;-4.81;58.91309;95766.25;;;;
2020/03/31 03:40:31;;;;;;;10.05;6.2;;;;;;;-4.81;58.91309;95766.25;;;;
2020/03/31 03:41:31;;;;;;;10.05;6.2;;;;;;;-4.81;58.91309;95766.25;;;;
2020/03/31 03:42:32;;;;;;;10.05;6.2;;;;;;;-4.81;58.91309;95766.25;;;;
2020/03/31 03:43:32;;;;;;;10.05;6.2;;;;;;;-4.81;58.91309;95766.25;;;;
2020/03/31 03:44:33;;;;;;;10.05;6.2;;;;;;;-4.81;58.91309;95766.25;;;;
2020/03/31 03:45:33;;;;;;;10.05;6.2;;;;;;;-4.81;58.91309;95766.25;;;;
2020/03/31 03:46:35;;;;;;;11.65;6.650001;;;;;;;-4.81;59.05859;95765.41;;;;
2020/03/31 03:47:35;;;;;;;11.65;6.650001;;;;;;;-4.81;59.05859;95765.41;;;;
2020/03/31 03:48:36;;;;;;;11.65;6.650001;;;;;;;-4.81;59.05859;95765.41;;;;
2020/03/31 03:49:37;;;;;;;11.65;6.650001;;;;;;;-4.81;59.05859;95765.41;;;;
2020/03/31 03:50:38;;;;;;;11.65;6.650001;;;;;;;-4.81;59.05859;95765.41;;;;
2020/03/31 03:51:38;;;;;;;11.65;6.650001;;;;;;;-4.81;59.05859;95765.41;;;;
2020/03/31 03:52:39;;;;;;;11.65;6.650001;;;;;;;-4.81;59.05859;95765.41;;;;
2020/03/31 03:53:43;;;;;;;11.65;6.650001;;;;;;;-4.81;59.05859;95765.41;;;;
2020/03/31 03:54:44;;;;;;;11.65;6.650001;;;;;;;-4.81;59.05859;95765.41;;;;
2020/03/31 03:56:28;;;;;;;11.65;6.650001;;;;;;;-4.81;59.05859;95765.41;;;;
2020/03/31 03:57:30;;;;;;;11.75;6.749999;;;;;;;-4.73;59.30762;95756.37;;;;
2020/03/31 03:58:39;;;;;;;11.75;6.749999;;;;;;;-4.73;59.30762;95756.37;;;;
2020/03/31 03:59:44;;;;;;;11.75;6.749999;;;;;;;-4.73;59.30762;95756.37;;;;
2020/03/31 04:00:44;;;;;;;11.75;6.749999;;;;;;;-4.73;59.30762;95756.37;;;;
2020/03/31 04:01:47;;;;;;;11.75;6.749999;;;;;;;-4.73;59.30762;95756.37;;;;
2020/03/31 04:02:47;;;;;;;11.75;6.749999;;;;;;;-4.73;59.30762;95756.37;;;;
2020/03/31 04:03:48;;;;;;;11.75;6.749999;;;;;;;-4.73;59.30762;95756.37;;;;
2020/03/31 04:04:49;;;;;;;11.75;6.749999;;;;;;;-4.73;59.30762;95756.37;;;;
2020/03/31 04:05:49;;;;;;;11.75;6.749999;;;;;;;-4.73;59.30762;95756.37;;;;
2020/03/31 04:06:50;;;;;;;11.75;6.749999;;;;;;;-4.73;59.30762;95756.37;;;;
2020/03/31 04:07:50;;;;;;;10.85;5.950001;;;;;;;-4.64;59.45508;95747.17;;;;
2020/03/31 04:08:51;;;;;;;10.85;5.950001;;;;;;;-4.64;59.45508;95747.17;;;;
2020/03/31 04:09:51;;;;;;;10.85;5.950001;;;;;;;-4.64;59.45508;95747.17;;;;
2020/03/31 04:10:52;;;;;;;10.85;5.950001;;;;;;;-4.64;59.45508;95747.17;;;;
2020/03/31 04:11:53;;;;;;;10.85;5.950001;;;;;;;-4.64;59.45508;95747.17;;;;
2020/03/31 04:12:53;;;;;;;10.85;5.950001;;;;;;;-4.64;59.45508;95747.17;;;;
2020/03/31 04:13:54;;;;;;;10.85;5.950001;;;;;;;-4.64;59.45508;95747.17;;;;
2020/03/31 04:14:54;;;;;;;10.85;5.950001;;;;;;;-4.64;59.45508;95747.17;;;;
2020/03/31 04:15:55;;;;;;;10.85;5.950001;;;;;;;-4.64;59.45508;95747.17;;;;
2020/03/31 04:16:55;;;;;;;10.85;5.950001;;;;;;;-4.64;59.45508;95747.17;;;;
2020/03/31 04:17:56;;;;;;;10.15;6.05;;;;;;;-4.49;59.80859;95752.01;;;;
2020/03/31 04:18:56;;;;;;;10.15;6.05;;;;;;;-4.49;59.80859;95752.01;;;;
2020/03/31 04:19:57;;;;;;;10.15;6.05;;;;;;;-4.49;59.80859;95752.01;;;;
2020/03/31 04:20:57;;;;;;;10.15;6.05;;;;;;;-4.49;59.80859;95752.01;;;;
2020/03/31 04:21:57;;;;;;;10.15;6.05;;;;;;;-4.49;59.80859;95752.01;;;;
2020/03/31 04:22:58;;;;;;;10.15;6.05;;;;;;;-4.49;59.80859;95752.01;;;;
2020/03/31 04:23:59;;;;;;;10.15;6.05;;;;;;;-4.49;59.80859;95752.01;;;;
2020/03/31 04:25:00;;;;;;;10.15;6.05;;;;;;;-4.49;59.80859;95752.01;;;;
2020/03/31 04:26:00;;;;;;;10.15;6.05;;;;;;;-4.49;59.80859;95752.01;;;;
2020/03/31 04:27:01;;;;;;;10.15;6.05;;;;;;;-4.49;59.80859;95752.01;;;;
2020/03/31 04:28:01;;;;;;;10.15;6.05;;;;;;;-4.49;59.80859;95752.01;;;;
2020/03/31 04:29:03;;;;;;;11.35;6.250001;;;;;;;-4.45;59.9375;95751.26;;;;
2020/03/31 04:30:04;;;;;;;11.35;6.250001;;;;;;;-4.45;59.9375;95751.26;;;;
2020/03/31 04:31:05;;;;;;;11.35;6.250001;;;;;;;-4.45;59.9375;95751.26;;;;
2020/03/31 04:32:05;;;;;;;11.35;6.250001;;;;;;;-4.45;59.9375;95751.26;;;;
2020/03/31 04:33:06;;;;;;;11.35;6.250001;;;;;;;-4.45;59.9375;95751.26;;;;
2020/03/31 04:34:06;;;;;;;11.35;6.250001;;;;;;;-4.45;59.9375;95751.26;;;;
2020/03/31 04:35:07;;;;;;;11.35;6.250001;;;;;;;-4.45;59.9375;95751.26;;;;
2020/03/31 04:36:07;;;;;;;11.35;6.250001;;;;;;;-4.45;59.9375;95751.26;;;;
2020/03/31 04:37:08;;;;;;;11.35;6.250001;;;;;;;-4.45;59.9375;95751.26;;;;
2020/03/31 04:38:08;;;;;;;11.35;6.250001;;;;;;;-4.45;59.9375;95751.26;;;;
2020/03/31 04:39:09;;;;;;;11.8;6.55;;;;;;;-4.37;60.3125;95758.42;;;;
2020/03/31 04:40:23;;;;;;;11.8;6.55;;;;;;;-4.37;60.3125;95758.42;;;;
2020/03/31 04:41:25;;;;;;;11.8;6.55;;;;;;;-4.37;60.3125;95758.42;;;;
2020/03/31 04:42:26;;;;;;;11.8;6.55;;;;;;;-4.37;60.3125;95758.42;;;;
2020/03/31 04:43:28;;;;;;;11.8;6.55;;;;;;;-4.37;60.3125;95758.42;;;;
2020/03/31 04:44:28;;;;;;;11.8;6.55;;;;;;;-4.37;60.3125;95758.42;;;;
2020/03/31 04:45:29;;;;;;;11.8;6.55;;;;;;;-4.37;60.3125;95758.42;;;;
2020/03/31 04:46:29;;;;;;;11.8;6.55;;;;;;;-4.37;60.3125;95758.42;;;;
2020/03/31 04:47:30;;;;;;;11.8;6.55;;;;;;;-4.37;60.3125;95758.42;;;;
2020/03/31 04:48:30;;;;;;;11.8;6.55;;;;;;;-4.37;60.3125;95758.42;;;;
2020/03/31 04:49:31;;;;;;;11.7;5.900001;;;;;;;-4.41;60.24609;95761.81;;;;
2020/03/31 04:50:31;;;;;;;11.7;5.900001;;;;;;;-4.41;60.24609;95761.81;;;;
2020/03/31 04:51:32;;;;;;;11.7;5.900001;;;;;;;-4.41;60.24609;95761.81;;;;
2020/03/31 04:52:32;;;;;;;11.7;5.900001;;;;;;;-4.41;60.24609;95761.81;;;;
2020/03/31 04:53:33;;;;;;;11.7;5.900001;;;;;;;-4.41;60.24609;95761.81;;;;
2020/03/31 04:54:33;;;;;;;11.7;5.900001;;;;;;;-4.41;60.24609;95761.81;;;;
2020/03/31 04:55:34;;;;;;;11.7;5.900001;;;;;;;-4.41;60.24609;95761.81;;;;
2020/03/31 04:56:34;;;;;;;11.7;5.900001;;;;;;;-4.41;60.24609;95761.81;;;;
2020/03/31 04:57:35;;;;;;;11.7;5.900001;;;;;;;-4.41;60.24609;95761.81;;;;
2020/03/31 04:58:35;;;;;;;11.7;5.900001;;;;;;;-4.41;60.24609;95761.81;;;;
2020/03/31 04:59:36;;;;;;;11.7;5.900001;;;;;;;-4.41;60.24609;95761.81;;;;
2020/03/31 05:00:36;;;;;;;10.25;5.900001;;;;;;;-4.39;60.12305;95777.51;;;;
2020/03/31 05:01:37;;;;;;;10.25;5.900001;;;;;;;-4.39;60.12305;95777.51;;;;
2020/03/31 05:11:20;;;;;;;10.65;5.9;;;;;;;-4.44;60.34473;95793.7;;;;
2020/03/31 05:12:21;;;;;;;10.65;5.9;;;;;;;-4.44;60.34473;95793.7;;;;
2020/03/31 05:13:22;;;;;;;10.65;5.9;;;;;;;-4.44;60.34473;95793.7;;;;
2020/03/31 05:14:22;;;;;;;10.65;5.9;;;;;;;-4.44;60.34473;95793.7;;;;
2020/03/31 05:15:25;;;;;;;10.65;5.9;;;;;;;-4.44;60.34473;95793.7;;;;
2020/03/31 05:16:26;;;;;;;10.65;5.9;;;;;;;-4.44;60.34473;95793.7;;;;
2020/03/31 05:17:26;;;;;;;10.65;5.9;;;;;;;-4.44;60.34473;95793.7;;;;
2020/03/31 05:18:27;;;;;;;10.65;5.9;;;;;;;-4.44;60.34473;95793.7;;;;
2020/03/31 05:19:27;;;;;;;10.65;5.9;;;;;;;-4.44;60.34473;95793.7;;;;
2020/03/31 05:20:28;;;;;;;10.65;5.9;;;;;;;-4.44;60.34473;95793.7;;;;
2020/03/31 05:21:28;;;;;;;8.85;4.8;;;;;;;-4.32;60.40332;95799.22;;;;
2020/03/31 05:22:29;;;;;;;8.85;4.8;;;;;;;-4.32;60.40332;95799.22;;;;
2020/03/31 05:23:29;;;;;;;8.85;4.8;;;;;;;-4.32;60.40332;95799.22;;;;
2020/03/31 05:24:30;;;;;;;8.85;4.8;;;;;;;-4.32;60.40332;95799.22;;;;
2020/03/31 05:25:30;;;;;;;8.85;4.8;;;;;;;-4.32;60.40332;95799.22;;;;
2020/03/31 05:26:31;;;;;;;8.85;4.8;;;;;;;-4.32;60.40332;95799.22;;;;
2020/03/31 05:27:32;;;;;;;8.85;4.8;;;;;;;-4.32;60.40332;95799.22;;;;
2020/03/31 05:28:32;;;;;;;8.85;4.8;;;;;;;-4.32;60.40332;95799.22;;;;
2020/03/31 05:29:33;;;;;;;8.85;4.8;;;;;;;-4.32;60.40332;95799.22;;;;
2020/03/31 05:30:33;;;;;;;8.85;4.8;;;;;;;-4.32;60.40332;95799.22;;;;
2020/03/31 05:31:33;;;;;;;8.85;4.8;;;;;;;-4.32;60.40332;95799.22;;;;
2020/03/31 05:32:34;;;;;;;9.65;5.3;;;;;;;-4.19;60.70117;95803.45;;;;
2020/03/31 05:33:35;;;;;;;9.65;5.3;;;;;;;-4.19;60.70117;95803.45;;;;
2020/03/31 05:34:35;;;;;;;9.65;5.3;;;;;;;-4.19;60.70117;95803.45;;;;
2020/03/31 05:35:36;;;;;;;9.65;5.3;;;;;;;-4.19;60.70117;95803.45;;;;
2020/03/31 05:36:36;;;;;;;9.65;5.3;;;;;;;-4.19;60.70117;95803.45;;;;
2020/03/31 05:37:37;;;;;;;9.65;5.3;;;;;;;-4.19;60.70117;95803.45;;;;
2020/03/31 05:38:37;;;;;;;9.65;5.3;;;;;;;-4.19;60.70117;95803.45;;;;
2020/03/31 05:39:38;;;;;;;9.65;5.3;;;;;;;-4.19;60.70117;95803.45;;;;
2020/03/31 05:40:38;;;;;;;9.65;5.3;;;;;;;-4.19;60.70117;95803.45;;;;
2020/03/31 05:41:39;;;;;;;9.65;5.3;;;;;;;-4.19;60.70117;95803.45;;;;
2020/03/31 05:42:39;;;;;;;9.200001;5.35;;;;;;;-3.99;60.09766;95815.22;;;;
2020/03/31 05:43:40;;;;;;;9.200001;5.35;;;;;;;-3.99;60.09766;95815.22;;;;
2020/03/31 05:44:40;;;;;;;9.200001;5.35;;;;;;;-3.99;60.09766;95815.22;;;;
2020/03/31 05:45:41;;;;;;;9.200001;5.35;;;;;;;-3.99;60.09766;95815.22;;;;
2020/03/31 05:46:41;;;;;;;9.200001;5.35;;;;;;;-3.99;60.09766;95815.22;;;;
2020/03/31 05:47:44;;;;;;;9.200001;5.35;;;;;;;-3.99;60.09766;95815.22;;;;
2020/03/31 05:49:06;;;;;;;9.200001;5.35;;;;;;;-3.99;60.09766;95815.22;;;;
2020/03/31 05:50:10;;;;;;;9.200001;5.35;;;;;;;-3.99;60.09766;95815.22;;;;
2020/03/31 05:51:13;;;;;;;9.200001;5.35;;;;;;;-3.99;60.09766;95815.22;;;;
2020/03/31 05:52:14;;;;;;;9.200001;5.35;;;;;;;-3.99;60.09766;95815.22;;;;
2020/03/31 05:53:14;;;;;;;9.099999;5.65;;;;;;;-3.82;60.24512;95825.6;;;;
2020/03/31 05:54:15;;;;;;;9.099999;5.65;;;;;;;-3.82;60.24512;95825.6;;;;
2020/03/31 05:55:15;;;;;;;9.099999;5.65;;;;;;;-3.82;60.24512;95825.6;;;;
2020/03/31 05:56:16;;;;;;;9.099999;5.65;;;;;;;-3.82;60.24512;95825.6;;;;
2020/03/31 05:57:17;;;;;;;9.099999;5.65;;;;;;;-3.82;60.24512;95825.6;;;;
2020/03/31 05:58:17;;;;;;;9.099999;5.65;;;;;;;-3.82;60.24512;95825.6;;;;
2020/03/31 05:59:18;;;;;;;9.099999;5.65;;;;;;;-3.82;60.24512;95825.6;;;;
2020/03/31 06:00:18;;;;;;;9.099999;5.65;;;;;;;-3.82;60.24512;95825.6;;;;
2020/03/31 06:01:24;;;;;;;9.099999;5.65;;;;;;;-3.82;60.24512;95825.6;;;;
2020/03/31 06:02:24;;;;;;;9.099999;5.65;;;;;;;-3.82;60.24512;95825.6;;;;
2020/03/31 06:03:25;;;;;;;9.099999;5.65;;;;;;;-3.82;60.24512;95825.6;;;;
2020/03/31 06:04:25;;;;;;;12.85;6.3;;;;;;;-3.35;59.98145;95838.87;;;;
2020/03/31 06:05:26;;;;;;;12.85;6.3;;;;;;;-3.35;59.98145;95838.87;;;;
2020/03/31 06:06:26;;;;;;;12.85;6.3;;;;;;;-3.35;59.98145;95838.87;;;;
2020/03/31 06:07:27;;;;;;;12.85;6.3;;;;;;;-3.35;59.98145;95838.87;;;;
2020/03/31 06:08:27;;;;;;;12.85;6.3;;;;;;;-3.35;59.98145;95838.87;;;;
2020/03/31 06:09:28;;;;;;;12.85;6.3;;;;;;;-3.35;59.98145;95838.87;;;;
2020/03/31 06:10:31;;;;;;;12.85;6.3;;;;;;;-3.35;59.98145;95838.87;;;;
2020/03/31 06:11:31;;;;;;;12.85;6.3;;;;;;;-3.35;59.98145;95838.87;;;;
2020/03/31 06:12:32;;;;;;;12.85;6.3;;;;;;;-3.35;59.98145;95838.87;;;;
2020/03/31 06:13:32;;;;;;;12.85;6.3;;;;;;;-3.35;59.98145;95838.87;;;;
2020/03/31 06:14:33;;;;;;;16.1;6.7;;;;;;;-2.71;59.29102;95851.4;;;;
2020/03/31 06:15:33;;;;;;;16.1;6.7;;;;;;;-2.71;59.29102;95851.4;;;;
2020/03/31 06:16:34;;;;;;;16.1;6.7;;;;;;;-2.71;59.29102;95851.4;;;;
2020/03/31 06:17:34;;;;;;;16.1;6.7;;;;;;;-2.71;59.29102;95851.4;;;;
2020/03/31 06:18:35;;;;;;;16.1;6.7;;;;;;;-2.71;59.29102;95851.4;;;;
2020/03/31 06:19:36;;;;;;;16.1;6.7;;;;;;;-2.71;59.29102;95851.4;;;;
2020/03/31 06:20:36;;;;;;;16.1;6.7;;;;;;;-2.71;59.29102;95851.4;;;;
2020/03/31 06:21:37;;;;;;;16.1;6.7;;;;;;;-2.71;59.29102;95851.4;;;;
2020/03/31 06:22:38;;;;;;;16.1;6.7;;;;;;;-2.71;59.29102;95851.4;;;;
2020/03/31 06:23:39;;;;;;;16.1;6.7;;;;;;;-2.71;59.29102;95851.4;;;;
2020/03/31 06:24:39;;;;;;;16.1;6.7;;;;;;;-2.71;59.29102;95851.4;;;;
2020/03/31 06:25:40;;;;;;;11.85;6.55;;;;;;;-1.82;58.69434;95854.78;;;;
2020/03/31 06:26:40;;;;;;;11.85;6.55;;;;;;;-1.82;58.69434;95854.78;;;;
2020/03/31 06:27:42;;;;;;;11.85;6.55;;;;;;;-1.82;58.69434;95854.78;;;;
2020/03/31 06:28:43;;;;;;;11.85;6.55;;;;;;;-1.82;58.69434;95854.78;;;;
2020/03/31 06:29:43;;;;;;;11.85;6.55;;;;;;;-1.82;58.69434;95854.78;;;;
2020/03/31 06:30:44;;;;;;;11.85;6.55;;;;;;;-1.82;58.69434;95854.78;;;;
2020/03/31 06:31:46;;;;;;;11.85;6.55;;;;;;;-1.82;58.69434;95854.78;;;;
2020/03/31 06:32:46;;;;;;;11.85;6.55;;;;;;;-1.82;58.69434;95854.78;;;;
2020/03/31 06:33:46;;;;;;;11.85;6.55;;;;;;;-1.82;58.69434;95854.78;;;;
2020/03/31 06:34:47;;;;;;;11.85;6.55;;;;;;;-1.82;58.69434;95854.78;;;;
2020/03/31 06:35:48;;;;;;;14.2;7.75;;;;;;;-0.94;58.09473;95858.97;;;;
2020/03/31 06:36:49;;;;;;;14.2;7.75;;;;;;;-0.94;58.09473;95858.97;;;;
2020/03/31 06:37:49;;;;;;;14.2;7.75;;;;;;;-0.94;58.09473;95858.97;;;;
2020/03/31 06:38:49;;;;;;;14.2;7.75;;;;;;;-0.94;58.09473;95858.97;;;;
2020/03/31 06:39:50;;;;;;;14.2;7.75;;;;;;;-0.94;58.09473;95858.97;;;;
2020/03/31 06:40:51;;;;;;;14.2;7.75;;;;;;;-0.94;58.09473;95858.97;;;;
2020/03/31 06:41:51;;;;;;;14.2;7.75;;;;;;;-0.94;58.09473;95858.97;;;;
2020/03/31 06:42:51;;;;;;;14.2;7.75;;;;;;;-0.94;58.09473;95858.97;;;;
2020/03/31 06:43:52;;;;;;;14.2;7.75;;;;;;;-0.94;58.09473;95858.97;;;;
2020/03/31 06:44:52;;;;;;;14.2;7.75;;;;;;;-0.94;58.09473;95858.97;;;;
2020/03/31 06:45:53;;;;;;;14.2;7.75;;;;;;;-0.94;58.09473;95858.97;;;;
2020/03/31 06:46:53;;;;;;;13.45;7.55;;;;;;;0.08;57.41699;95870.09;;;;
2020/03/31 06:47:54;;;;;;;13.45;7.55;;;;;;;0.08;57.41699;95870.09;;;;
2020/03/31 06:48:54;;;;;;;13.45;7.55;;;;;;;0.08;57.41699;95870.09;;;;
2020/03/31 06:49:55;;;;;;;13.45;7.55;;;;;;;0.08;57.41699;95870.09;;;;
2020/03/31 06:50:55;;;;;;;13.45;7.55;;;;;;;0.08;57.41699;95870.09;;;;
2020/03/31 06:51:56;;;;;;;13.45;7.55;;;;;;;0.08;57.41699;95870.09;;;;
2020/03/31 06:52:56;;;;;;;13.45;7.55;;;;;;;0.08;57.41699;95870.09;;;;
2020/03/31 06:53:57;;;;;;;13.45;7.55;;;;;;;0.08;57.41699;95870.09;;;;
2020/03/31 06:54:57;;;;;;;13.45;7.55;;;;;;;0.08;57.41699;95870.09;;;;
2020/03/31 06:55:58;;;;;;;13.45;7.55;;;;;;;0.08;57.41699;95870.09;;;;
2020/03/31 06:56:58;;;;;;;13.1;7.800001;;;;;;;1.02;56.8584;95881.33;;;;
2020/03/31 06:57:58;;;;;;;13.1;7.800001;;;;;;;1.02;56.8584;95881.33;;;;
2020/03/31 06:58:59;;;;;;;13.1;7.800001;;;;;;;1.02;56.8584;95881.33;;;;
2020/03/31 07:00:00;;;;;;;13.1;7.800001;;;;;;;1.02;56.8584;95881.33;;;;
2020/03/31 07:01:00;;;;;;;13.1;7.800001;;;;;;;1.02;56.8584;95881.33;;;;
2020/03/31 07:02:01;;;;;;;13.1;7.800001;;;;;;;1.02;56.8584;95881.33;;;;
2020/03/31 07:03:01;;;;;;;13.1;7.800001;;;;;;;1.02;56.8584;95881.33;;;;
2020/03/31 07:04:04;;;;;;;13.1;7.800001;;;;;;;1.02;56.8584;95881.33;;;;
2020/03/31 07:05:05;;;;;;;13.1;7.800001;;;;;;;1.02;56.8584;95881.33;;;;
2020/03/31 07:06:06;;;;;;;13.1;7.800001;;;;;;;1.02;56.8584;95881.33;;;;
2020/03/31 07:07:06;;;;;;;13.1;7.800001;;;;;;;1.02;56.8584;95881.33;;;;
2020/03/31 07:08:07;;;;;;;11.65;8;;;;;;;1.48;56.87793;95871.89;;;;
2020/03/31 07:09:08;;;;;;;11.65;8;;;;;;;1.48;56.87793;95871.89;;;;
2020/03/31 07:10:26;;;;;;;11.65;8;;;;;;;1.48;56.87793;95871.89;;;;
2020/03/31 07:11:27;;;;;;;11.65;8;;;;;;;1.48;56.87793;95871.89;;;;
2020/03/31 07:12:27;;;;;;;11.65;8;;;;;;;1.48;56.87793;95871.89;;;;
2020/03/31 07:13:27;;;;;;;11.65;8;;;;;;;1.48;56.87793;95871.89;;;;
2020/03/31 07:14:28;;;;;;;11.65;8;;;;;;;1.48;56.87793;95871.89;;;;
2020/03/31 07:15:28;;;;;;;11.65;8;;;;;;;1.48;56.87793;95871.89;;;;
2020/03/31 07:16:31;;;;;;;11.65;8;;;;;;;1.48;56.87793;95871.89;;;;
2020/03/31 07:17:31;;;;;;;11.65;8;;;;;;;1.48;56.87793;95871.89;;;;
2020/03/31 07:18:31;;;;;;;18.6;8.999998;;;;;;;1.71;57.14063;95876.06;;;;
2020/03/31 07:19:32;;;;;;;18.6;8.999998;;;;;;;1.71;57.14063;95876.06;;;;
2020/03/31 07:20:33;;;;;;;18.6;8.999998;;;;;;;1.71;57.14063;95876.06;;;;
2020/03/31 07:21:33;;;;;;;18.6;8.999998;;;;;;;1.71;57.14063;95876.06;;;;
2020/03/31 07:22:34;;;;;;;18.6;8.999998;;;;;;;1.71;57.14063;95876.06;;;;
2020/03/31 07:23:34;;;;;;;18.6;8.999998;;;;;;;1.71;57.14063;95876.06;;;;
2020/03/31 07:24:35;;;;;;;18.6;8.999998;;;;;;;1.71;57.14063;95876.06;;;;